sensor_id;sensor_type;location;lat;lon;timestamp;temperature;humidity
56538;DHT22;42435;53.292;6.000;2022-10-16T00:00:44;14.30;81.90
56538;DHT22;42435;53.292;6.000;2022-10-16T00:03:10;14.30;81.90
56538;DHT22;42435;53.292;6.000;2022-10-16T00:05:41;14.20;82.00
56538;DHT22;42435;53.292;6.000;2022-10-16T00:08:09;14.20;81.90
56538;DHT22;42435;53.292;6.000;2022-10-16T00:10:35;14.20;81.90
56538;DHT22;42435;53.292;6.000;2022-10-16T00:13:00;14.20;81.90
56538;DHT22;42435;53.292;6.000;2022-10-16T00:15:26;14.20;81.90
56538;DHT22;42435;53.292;6.000;2022-10-16T00:17:52;14.20;82.00
56538;DHT22;42435;53.292;6.000;2022-10-16T00:20:17;14.20;82.00
56538;DHT22;42435;53.292;6.000;2022-10-16T00:22:43;14.10;82.00
56538;DHT22;42435;53.292;6.000;2022-10-16T00:25:08;14.10;82.00
56538;DHT22;42435;53.292;6.000;2022-10-16T00:27:34;14.10;82.00
56538;DHT22;42435;53.292;6.000;2022-10-16T00:30:03;14.10;81.90
56538;DHT22;42435;53.292;6.000;2022-10-16T00:32:29;14.10;81.90
56538;DHT22;42435;53.292;6.000;2022-10-16T00:34:55;14.10;81.90
56538;DHT22;42435;53.292;6.000;2022-10-16T00:37:21;14.10;81.90
56538;DHT22;42435;53.292;6.000;2022-10-16T00:39:47;14.10;81.90
56538;DHT22;42435;53.292;6.000;2022-10-16T00:42:19;14.10;81.90
56538;DHT22;42435;53.292;6.000;2022-10-16T00:44:50;14.10;81.80
56538;DHT22;42435;53.292;6.000;2022-10-16T00:47:21;14.10;81.80
56538;DHT22;42435;53.292;6.000;2022-10-16T00:49:50;14.10;81.80
56538;DHT22;42435;53.292;6.000;2022-10-16T00:52:16;14.10;81.70
56538;DHT22;42435;53.292;6.000;2022-10-16T00:54:43;14.10;81.70
56538;DHT22;42435;53.292;6.000;2022-10-16T00:57:09;14.10;81.60
56538;DHT22;42435;53.292;6.000;2022-10-16T00:59:40;14.10;81.60
56538;DHT22;42435;53.292;6.000;2022-10-16T01:02:14;14.10;81.50
56538;DHT22;42435;53.292;6.000;2022-10-16T01:04:43;14.10;81.50
56538;DHT22;42435;53.292;6.000;2022-10-16T01:15:36;14.00;81.50
56538;DHT22;42435;53.292;6.000;2022-10-16T01:21:33;14.00;81.50
56538;DHT22;42435;53.292;6.000;2022-10-16T01:24:15;14.10;81.50
56538;DHT22;42435;53.292;6.000;2022-10-16T01:27:08;14.10;81.50
56538;DHT22;42435;53.292;6.000;2022-10-16T01:29:54;14.20;81.40
56538;DHT22;42435;53.292;6.000;2022-10-16T01:32:37;14.20;81.30
56538;DHT22;42435;53.292;6.000;2022-10-16T01:35:09;14.30;81.10
56538;DHT22;42435;53.292;6.000;2022-10-16T01:40:17;14.40;80.80
56538;DHT22;42435;53.292;6.000;2022-10-16T01:42:56;14.40;80.60
56538;DHT22;42435;53.292;6.000;2022-10-16T01:45:28;14.50;80.30
56538;DHT22;42435;53.292;6.000;2022-10-16T01:47:55;14.50;80.00
56538;DHT22;42435;53.292;6.000;2022-10-16T01:50:21;14.50;79.80
56538;DHT22;42435;53.292;6.000;2022-10-16T01:52:50;14.60;79.80
56538;DHT22;42435;53.292;6.000;2022-10-16T01:55:22;14.60;79.80
56538;DHT22;42435;53.292;6.000;2022-10-16T01:57:51;14.60;79.70
56538;DHT22;42435;53.292;6.000;2022-10-16T02:00:19;14.60;79.60
56538;DHT22;42435;53.292;6.000;2022-10-16T02:02:47;14.60;79.60
56538;DHT22;42435;53.292;6.000;2022-10-16T02:07:49;14.60;79.80
56538;DHT22;42435;53.292;6.000;2022-10-16T02:10:15;14.60;79.80
56538;DHT22;42435;53.292;6.000;2022-10-16T02:12:45;14.60;79.90
56538;DHT22;42435;53.292;6.000;2022-10-16T02:15:13;14.50;80.20
56538;DHT22;42435;53.292;6.000;2022-10-16T02:17:39;14.50;80.30
56538;DHT22;42435;53.292;6.000;2022-10-16T02:20:05;14.50;80.40
56538;DHT22;42435;53.292;6.000;2022-10-16T02:22:35;14.50;80.50
56538;DHT22;42435;53.292;6.000;2022-10-16T02:25:19;14.40;80.60
56538;DHT22;42435;53.292;6.000;2022-10-16T02:28:19;14.40;80.70
56538;DHT22;42435;53.292;6.000;2022-10-16T02:30:57;14.40;80.70
56538;DHT22;42435;53.292;6.000;2022-10-16T02:33:25;14.50;80.70
56538;DHT22;42435;53.292;6.000;2022-10-16T02:35:52;14.40;80.80
56538;DHT22;42435;53.292;6.000;2022-10-16T02:38:20;14.40;80.90
56538;DHT22;42435;53.292;6.000;2022-10-16T02:40:46;14.40;81.00
56538;DHT22;42435;53.292;6.000;2022-10-16T02:43:12;14.40;81.10
56538;DHT22;42435;53.292;6.000;2022-10-16T02:45:38;14.40;81.20
56538;DHT22;42435;53.292;6.000;2022-10-16T02:48:06;14.40;81.30
56538;DHT22;42435;53.292;6.000;2022-10-16T02:50:32;14.40;81.40
56538;DHT22;42435;53.292;6.000;2022-10-16T02:52:58;14.40;81.40
56538;DHT22;42435;53.292;6.000;2022-10-16T02:55:23;14.40;81.50
56538;DHT22;42435;53.292;6.000;2022-10-16T02:57:49;14.40;81.50
56538;DHT22;42435;53.292;6.000;2022-10-16T03:00:16;14.40;81.50
56538;DHT22;42435;53.292;6.000;2022-10-16T03:02:42;14.40;81.50
56538;DHT22;42435;53.292;6.000;2022-10-16T03:05:09;14.40;81.40
56538;DHT22;42435;53.292;6.000;2022-10-16T03:07:35;14.40;81.30
56538;DHT22;42435;53.292;6.000;2022-10-16T03:10:01;14.30;81.10
56538;DHT22;42435;53.292;6.000;2022-10-16T03:12:27;14.20;81.00
56538;DHT22;42435;53.292;6.000;2022-10-16T03:14:53;14.20;81.00
56538;DHT22;42435;53.292;6.000;2022-10-16T03:17:18;14.20;81.00
56538;DHT22;42435;53.292;6.000;2022-10-16T03:19:44;14.20;81.00
56538;DHT22;42435;53.292;6.000;2022-10-16T03:22:13;14.10;81.00
56538;DHT22;42435;53.292;6.000;2022-10-16T03:24:38;14.10;81.00
56538;DHT22;42435;53.292;6.000;2022-10-16T03:27:04;14.00;80.90
56538;DHT22;42435;53.292;6.000;2022-10-16T03:29:32;14.00;80.80
56538;DHT22;42435;53.292;6.000;2022-10-16T03:31:58;14.00;80.70
56538;DHT22;42435;53.292;6.000;2022-10-16T03:34:24;13.90;80.70
56538;DHT22;42435;53.292;6.000;2022-10-16T03:36:51;13.90;80.80
56538;DHT22;42435;53.292;6.000;2022-10-16T03:39:17;13.90;80.80
56538;DHT22;42435;53.292;6.000;2022-10-16T03:41:42;13.90;80.80
56538;DHT22;42435;53.292;6.000;2022-10-16T03:44:08;13.90;80.70
56538;DHT22;42435;53.292;6.000;2022-10-16T03:46:34;13.80;80.70
56538;DHT22;42435;53.292;6.000;2022-10-16T03:49:02;13.90;80.80
56538;DHT22;42435;53.292;6.000;2022-10-16T03:51:27;13.80;80.70
56538;DHT22;42435;53.292;6.000;2022-10-16T03:53:53;13.80;80.80
56538;DHT22;42435;53.292;6.000;2022-10-16T03:56:18;13.90;80.80
56538;DHT22;42435;53.292;6.000;2022-10-16T03:58:44;13.90;80.90
56538;DHT22;42435;53.292;6.000;2022-10-16T04:01:10;13.90;81.00
56538;DHT22;42435;53.292;6.000;2022-10-16T04:03:35;13.90;81.00
56538;DHT22;42435;53.292;6.000;2022-10-16T04:06:01;13.90;81.00
56538;DHT22;42435;53.292;6.000;2022-10-16T04:08:26;13.90;81.00
56538;DHT22;42435;53.292;6.000;2022-10-16T04:10:52;13.90;81.20
56538;DHT22;42435;53.292;6.000;2022-10-16T04:13:17;13.90;81.20
56538;DHT22;42435;53.292;6.000;2022-10-16T04:15:44;14.00;81.30
56538;DHT22;42435;53.292;6.000;2022-10-16T04:18:10;14.00;81.40
56538;DHT22;42435;53.292;6.000;2022-10-16T04:20:36;14.00;81.50
56538;DHT22;42435;53.292;6.000;2022-10-16T04:23:01;14.00;81.50
56538;DHT22;42435;53.292;6.000;2022-10-16T04:25:27;14.00;81.60
56538;DHT22;42435;53.292;6.000;2022-10-16T04:27:53;14.00;81.60
56538;DHT22;42435;53.292;6.000;2022-10-16T04:30:19;14.10;81.80
56538;DHT22;42435;53.292;6.000;2022-10-16T04:32:52;14.10;81.80
56538;DHT22;42435;53.292;6.000;2022-10-16T04:35:19;14.10;82.00
56538;DHT22;42435;53.292;6.000;2022-10-16T04:37:45;14.10;82.10
56538;DHT22;42435;53.292;6.000;2022-10-16T04:40:11;14.10;82.10
56538;DHT22;42435;53.292;6.000;2022-10-16T04:42:36;14.10;82.20
56538;DHT22;42435;53.292;6.000;2022-10-16T04:45:03;14.10;82.20
56538;DHT22;42435;53.292;6.000;2022-10-16T04:47:29;14.10;82.30
56538;DHT22;42435;53.292;6.000;2022-10-16T04:49:54;14.20;82.40
56538;DHT22;42435;53.292;6.000;2022-10-16T04:52:21;14.10;82.30
56538;DHT22;42435;53.292;6.000;2022-10-16T04:54:49;14.10;82.30
56538;DHT22;42435;53.292;6.000;2022-10-16T04:57:15;14.10;82.30
56538;DHT22;42435;53.292;6.000;2022-10-16T04:59:41;14.10;82.40
56538;DHT22;42435;53.292;6.000;2022-10-16T05:02:07;14.10;82.30
56538;DHT22;42435;53.292;6.000;2022-10-16T05:04:32;14.10;82.30
56538;DHT22;42435;53.292;6.000;2022-10-16T05:06:58;14.10;82.20
56538;DHT22;42435;53.292;6.000;2022-10-16T05:09:23;14.00;82.20
56538;DHT22;42435;53.292;6.000;2022-10-16T05:11:49;14.00;82.20
56538;DHT22;42435;53.292;6.000;2022-10-16T05:14:14;14.00;82.10
56538;DHT22;42435;53.292;6.000;2022-10-16T05:16:40;14.00;82.10
56538;DHT22;42435;53.292;6.000;2022-10-16T05:19:08;14.00;82.00
56538;DHT22;42435;53.292;6.000;2022-10-16T05:21:34;14.00;82.00
56538;DHT22;42435;53.292;6.000;2022-10-16T05:23:59;14.00;82.10
56538;DHT22;42435;53.292;6.000;2022-10-16T05:26:25;14.00;82.10
56538;DHT22;42435;53.292;6.000;2022-10-16T05:28:51;13.90;82.10
56538;DHT22;42435;53.292;6.000;2022-10-16T05:31:16;14.00;82.10
56538;DHT22;42435;53.292;6.000;2022-10-16T05:33:42;14.00;82.20
56538;DHT22;42435;53.292;6.000;2022-10-16T05:36:10;14.00;82.20
56538;DHT22;42435;53.292;6.000;2022-10-16T05:38:36;14.00;82.30
56538;DHT22;42435;53.292;6.000;2022-10-16T05:41:02;14.00;82.40
56538;DHT22;42435;53.292;6.000;2022-10-16T05:43:29;13.90;82.40
56538;DHT22;42435;53.292;6.000;2022-10-16T05:46:04;14.00;82.50
56538;DHT22;42435;53.292;6.000;2022-10-16T05:48:30;14.00;82.60
56538;DHT22;42435;53.292;6.000;2022-10-16T05:51:06;14.00;82.50
56538;DHT22;42435;53.292;6.000;2022-10-16T05:53:35;14.00;82.60
56538;DHT22;42435;53.292;6.000;2022-10-16T05:56:01;13.90;82.60
56538;DHT22;42435;53.292;6.000;2022-10-16T05:58:35;13.90;82.60
56538;DHT22;42435;53.292;6.000;2022-10-16T06:01:10;13.90;82.70
56538;DHT22;42435;53.292;6.000;2022-10-16T06:03:36;13.90;82.70
56538;DHT22;42435;53.292;6.000;2022-10-16T06:06:23;13.80;82.80
56538;DHT22;42435;53.292;6.000;2022-10-16T06:08:49;13.90;82.90
56538;DHT22;42435;53.292;6.000;2022-10-16T06:11:20;13.80;82.80
56538;DHT22;42435;53.292;6.000;2022-10-16T06:13:53;13.80;82.90
56538;DHT22;42435;53.292;6.000;2022-10-16T06:16:21;13.80;83.00
56538;DHT22;42435;53.292;6.000;2022-10-16T06:18:47;13.90;83.00
56538;DHT22;42435;53.292;6.000;2022-10-16T06:21:18;13.80;83.00
56538;DHT22;42435;53.292;6.000;2022-10-16T06:23:48;13.80;83.00
56538;DHT22;42435;53.292;6.000;2022-10-16T06:26:17;13.80;83.00
56538;DHT22;42435;53.292;6.000;2022-10-16T06:28:43;13.80;82.90
56538;DHT22;42435;53.292;6.000;2022-10-16T06:31:09;13.80;83.00
56538;DHT22;42435;53.292;6.000;2022-10-16T06:33:36;13.80;83.00
56538;DHT22;42435;53.292;6.000;2022-10-16T06:36:10;13.80;83.00
56538;DHT22;42435;53.292;6.000;2022-10-16T06:38:37;13.80;83.10
56538;DHT22;42435;53.292;6.000;2022-10-16T06:41:04;13.80;83.10
56538;DHT22;42435;53.292;6.000;2022-10-16T06:43:30;13.80;83.10
56538;DHT22;42435;53.292;6.000;2022-10-16T06:46:01;13.90;83.10
56538;DHT22;42435;53.292;6.000;2022-10-16T06:48:28;13.90;83.20
56538;DHT22;42435;53.292;6.000;2022-10-16T06:53:30;14.00;83.20
56538;DHT22;42435;53.292;6.000;2022-10-16T06:55:57;14.00;83.10
56538;DHT22;42435;53.292;6.000;2022-10-16T06:58:23;14.00;83.00
56538;DHT22;42435;53.292;6.000;2022-10-16T07:00:49;14.00;83.00
56538;DHT22;42435;53.292;6.000;2022-10-16T07:03:19;14.00;82.90
56538;DHT22;42435;53.292;6.000;2022-10-16T07:05:45;14.00;82.90
56538;DHT22;42435;53.292;6.000;2022-10-16T07:08:11;14.00;82.80
56538;DHT22;42435;53.292;6.000;2022-10-16T07:10:39;14.00;82.70
56538;DHT22;42435;53.292;6.000;2022-10-16T07:13:04;14.00;82.70
56538;DHT22;42435;53.292;6.000;2022-10-16T07:15:32;14.00;82.60
56538;DHT22;42435;53.292;6.000;2022-10-16T07:17:58;14.00;82.70
56538;DHT22;42435;53.292;6.000;2022-10-16T07:20:24;14.00;82.70
56538;DHT22;42435;53.292;6.000;2022-10-16T07:22:49;14.10;82.60
56538;DHT22;42435;53.292;6.000;2022-10-16T07:25:15;14.10;82.60
56538;DHT22;42435;53.292;6.000;2022-10-16T07:27:43;14.10;82.50
56538;DHT22;42435;53.292;6.000;2022-10-16T07:30:09;14.10;82.40
56538;DHT22;42435;53.292;6.000;2022-10-16T07:32:37;14.10;82.40
56538;DHT22;42435;53.292;6.000;2022-10-16T07:35:04;14.10;82.60
56538;DHT22;42435;53.292;6.000;2022-10-16T07:37:32;14.20;82.70
56538;DHT22;42435;53.292;6.000;2022-10-16T07:39:58;14.20;82.80
56538;DHT22;42435;53.292;6.000;2022-10-16T07:42:24;14.40;82.80
56538;DHT22;42435;53.292;6.000;2022-10-16T07:45:06;14.40;82.90
56538;DHT22;42435;53.292;6.000;2022-10-16T07:47:31;14.50;82.80
56538;DHT22;42435;53.292;6.000;2022-10-16T07:49:57;14.60;82.70
56538;DHT22;42435;53.292;6.000;2022-10-16T07:52:25;14.70;82.50
56538;DHT22;42435;53.292;6.000;2022-10-16T07:54:51;14.90;82.30
56538;DHT22;42435;53.292;6.000;2022-10-16T07:57:16;15.00;82.20
56538;DHT22;42435;53.292;6.000;2022-10-16T07:59:45;15.10;82.00
56538;DHT22;42435;53.292;6.000;2022-10-16T08:02:11;15.30;81.80
56538;DHT22;42435;53.292;6.000;2022-10-16T08:04:37;15.40;81.50
56538;DHT22;42435;53.292;6.000;2022-10-16T08:07:03;15.50;81.10
56538;DHT22;42435;53.292;6.000;2022-10-16T08:09:29;15.50;80.70
56538;DHT22;42435;53.292;6.000;2022-10-16T08:11:54;15.50;80.40
56538;DHT22;42435;53.292;6.000;2022-10-16T08:14:20;15.50;80.30
56538;DHT22;42435;53.292;6.000;2022-10-16T08:16:46;15.50;80.10
56538;DHT22;42435;53.292;6.000;2022-10-16T08:19:11;15.40;80.10
56538;DHT22;42435;53.292;6.000;2022-10-16T08:21:37;15.40;80.20
56538;DHT22;42435;53.292;6.000;2022-10-16T08:24:02;15.30;80.20
56538;DHT22;42435;53.292;6.000;2022-10-16T08:26:28;15.30;80.30
56538;DHT22;42435;53.292;6.000;2022-10-16T08:28:54;15.30;80.40
56538;DHT22;42435;53.292;6.000;2022-10-16T08:31:20;15.30;80.50
56538;DHT22;42435;53.292;6.000;2022-10-16T08:33:46;15.30;80.50
56538;DHT22;42435;53.292;6.000;2022-10-16T08:36:13;15.20;80.70
56538;DHT22;42435;53.292;6.000;2022-10-16T08:38:39;15.30;80.80
56538;DHT22;42435;53.292;6.000;2022-10-16T08:44:28;15.50;80.50
56538;DHT22;42435;53.292;6.000;2022-10-16T08:47:18;15.50;80.30
56538;DHT22;42435;53.292;6.000;2022-10-16T08:49:58;15.60;80.20
56538;DHT22;42435;53.292;6.000;2022-10-16T08:52:31;15.70;80.10
56538;DHT22;42435;53.292;6.000;2022-10-16T08:54:58;15.90;80.10
56538;DHT22;42435;53.292;6.000;2022-10-16T08:57:25;15.90;79.80
56538;DHT22;42435;53.292;6.000;2022-10-16T09:00:00;16.00;79.50
56538;DHT22;42435;53.292;6.000;2022-10-16T09:02:55;16.20;79.40
56538;DHT22;42435;53.292;6.000;2022-10-16T09:05:38;16.30;78.80
56538;DHT22;42435;53.292;6.000;2022-10-16T09:10:58;16.50;78.20
56538;DHT22;42435;53.292;6.000;2022-10-16T09:16:28;16.90;77.90
56538;DHT22;42435;53.292;6.000;2022-10-16T09:21:46;17.20;77.20
56538;DHT22;42435;53.292;6.000;2022-10-16T09:24:14;17.40;76.80
56538;DHT22;42435;53.292;6.000;2022-10-16T09:26:40;17.40;76.30
56538;DHT22;42435;53.292;6.000;2022-10-16T09:29:05;17.50;75.90
56538;DHT22;42435;53.292;6.000;2022-10-16T09:31:31;17.50;75.80
56538;DHT22;42435;53.292;6.000;2022-10-16T09:34:02;17.70;75.80
56538;DHT22;42435;53.292;6.000;2022-10-16T09:36:43;17.80;75.10
56538;DHT22;42435;53.292;6.000;2022-10-16T09:39:11;17.90;74.90
56538;DHT22;42435;53.292;6.000;2022-10-16T09:41:41;18.00;74.80
56538;DHT22;42435;53.292;6.000;2022-10-16T09:46:47;18.40;73.50
56538;DHT22;42435;53.292;6.000;2022-10-16T09:49:26;18.40;73.00
56538;DHT22;42435;53.292;6.000;2022-10-16T09:52:04;18.40;72.70
56538;DHT22;42435;53.292;6.000;2022-10-16T09:54:29;18.40;72.40
56538;DHT22;42435;53.292;6.000;2022-10-16T09:57:15;18.40;72.50
56538;DHT22;42435;53.292;6.000;2022-10-16T09:59:58;18.40;72.10
56538;DHT22;42435;53.292;6.000;2022-10-16T10:04:55;18.20;71.90
56538;DHT22;42435;53.292;6.000;2022-10-16T10:07:27;18.20;72.20
56538;DHT22;42435;53.292;6.000;2022-10-16T10:09:54;18.20;72.30
56538;DHT22;42435;53.292;6.000;2022-10-16T10:12:29;18.20;72.40
56538;DHT22;42435;53.292;6.000;2022-10-16T10:15:06;18.30;72.50
56538;DHT22;42435;53.292;6.000;2022-10-16T10:17:33;18.20;72.40
56538;DHT22;42435;53.292;6.000;2022-10-16T10:20:22;18.20;72.60
56538;DHT22;42435;53.292;6.000;2022-10-16T10:22:48;18.20;72.30
56538;DHT22;42435;53.292;6.000;2022-10-16T10:25:23;18.00;71.60
56538;DHT22;42435;53.292;6.000;2022-10-16T10:33:46;17.80;69.10
56538;DHT22;42435;53.292;6.000;2022-10-16T10:36:22;17.80;68.40
56538;DHT22;42435;53.292;6.000;2022-10-16T10:38:54;17.80;67.40
56538;DHT22;42435;53.292;6.000;2022-10-16T10:46:51;18.00;66.20
56538;DHT22;42435;53.292;6.000;2022-10-16T10:57:33;18.00;64.90
56538;DHT22;42435;53.292;6.000;2022-10-16T11:00:19;18.10;65.10
56538;DHT22;42435;53.292;6.000;2022-10-16T11:08:32;18.40;64.50
56538;DHT22;42435;53.292;6.000;2022-10-16T11:11:25;18.50;64.30
56538;DHT22;42435;53.292;6.000;2022-10-16T11:16:29;18.60;63.30
56538;DHT22;42435;53.292;6.000;2022-10-16T11:19:12;18.60;62.70
56538;DHT22;42435;53.292;6.000;2022-10-16T11:21:56;18.70;62.60
56538;DHT22;42435;53.292;6.000;2022-10-16T11:24:44;18.80;61.60
56538;DHT22;42435;53.292;6.000;2022-10-16T11:27:16;18.90;60.40
56538;DHT22;42435;53.292;6.000;2022-10-16T11:29:59;18.90;59.90
56538;DHT22;42435;53.292;6.000;2022-10-16T11:32:33;18.80;59.60
56538;DHT22;42435;53.292;6.000;2022-10-16T11:35:29;18.90;59.20
56538;DHT22;42435;53.292;6.000;2022-10-16T11:37:59;18.90;58.40
56538;DHT22;42435;53.292;6.000;2022-10-16T11:40:32;18.80;58.40
56538;DHT22;42435;53.292;6.000;2022-10-16T11:43:36;18.70;58.60
56538;DHT22;42435;53.292;6.000;2022-10-16T11:46:03;18.70;59.10
56538;DHT22;42435;53.292;6.000;2022-10-16T11:48:46;18.70;60.10
56538;DHT22;42435;53.292;6.000;2022-10-16T11:51:38;18.70;59.60
56538;DHT22;42435;53.292;6.000;2022-10-16T11:56:41;18.80;59.40
56538;DHT22;42435;53.292;6.000;2022-10-16T11:59:31;18.90;59.70
56538;DHT22;42435;53.292;6.000;2022-10-16T12:02:30;18.90;59.80
56538;DHT22;42435;53.292;6.000;2022-10-16T12:05:06;19.20;60.20
56538;DHT22;42435;53.292;6.000;2022-10-16T12:07:41;19.30;59.40
56538;DHT22;42435;53.292;6.000;2022-10-16T12:10:25;19.30;58.80
56538;DHT22;42435;53.292;6.000;2022-10-16T12:12:51;19.40;59.20
56538;DHT22;42435;53.292;6.000;2022-10-16T12:17:45;19.50;58.70
56538;DHT22;42435;53.292;6.000;2022-10-16T12:22:41;19.60;58.20
56538;DHT22;42435;53.292;6.000;2022-10-16T12:25:39;19.60;58.00
56538;DHT22;42435;53.292;6.000;2022-10-16T12:30:43;19.80;57.30
56538;DHT22;42435;53.292;6.000;2022-10-16T12:33:24;19.80;56.90
56538;DHT22;42435;53.292;6.000;2022-10-16T12:35:50;19.80;56.70
56538;DHT22;42435;53.292;6.000;2022-10-16T12:38:28;19.70;56.50
56538;DHT22;42435;53.292;6.000;2022-10-16T12:41:01;19.60;56.20
56538;DHT22;42435;53.292;6.000;2022-10-16T12:43:39;19.40;56.20
56538;DHT22;42435;53.292;6.000;2022-10-16T12:48:42;19.30;56.30
56538;DHT22;42435;53.292;6.000;2022-10-16T12:54:10;19.40;57.50
56538;DHT22;42435;53.292;6.000;2022-10-16T12:57:03;19.40;57.60
56538;DHT22;42435;53.292;6.000;2022-10-16T12:59:53;19.40;57.30
56538;DHT22;42435;53.292;6.000;2022-10-16T13:05:40;19.40;56.80
56538;DHT22;42435;53.292;6.000;2022-10-16T13:13:45;19.30;57.00
56538;DHT22;42435;53.292;6.000;2022-10-16T13:21:39;19.20;57.50
56538;DHT22;42435;53.292;6.000;2022-10-16T13:29:20;19.20;57.10
56538;DHT22;42435;53.292;6.000;2022-10-16T13:31:46;19.20;57.20
56538;DHT22;42435;53.292;6.000;2022-10-16T13:34:18;19.20;57.20
56538;DHT22;42435;53.292;6.000;2022-10-16T13:36:51;19.10;57.90
56538;DHT22;42435;53.292;6.000;2022-10-16T13:39:26;19.00;58.20
56538;DHT22;42435;53.292;6.000;2022-10-16T13:42:12;19.00;58.10
56538;DHT22;42435;53.292;6.000;2022-10-16T13:44:44;18.90;58.30
56538;DHT22;42435;53.292;6.000;2022-10-16T13:47:29;18.80;58.50
56538;DHT22;42435;53.292;6.000;2022-10-16T13:50:09;18.70;58.80
56538;DHT22;42435;53.292;6.000;2022-10-16T13:52:36;18.60;59.20
56538;DHT22;42435;53.292;6.000;2022-10-16T13:55:04;18.60;59.70
56538;DHT22;42435;53.292;6.000;2022-10-16T13:57:30;18.50;60.20
56538;DHT22;42435;53.292;6.000;2022-10-16T13:59:55;18.50;60.50
56538;DHT22;42435;53.292;6.000;2022-10-16T14:04:47;18.40;60.60
56538;DHT22;42435;53.292;6.000;2022-10-16T14:07:18;18.50;60.70
56538;DHT22;42435;53.292;6.000;2022-10-16T14:09:48;18.50;60.60
56538;DHT22;42435;53.292;6.000;2022-10-16T14:12:18;18.50;60.40
56538;DHT22;42435;53.292;6.000;2022-10-16T14:14:46;18.50;60.20
56538;DHT22;42435;53.292;6.000;2022-10-16T14:17:22;18.40;60.20
56538;DHT22;42435;53.292;6.000;2022-10-16T14:19:50;18.40;60.20
56538;DHT22;42435;53.292;6.000;2022-10-16T14:24:53;18.60;60.50
56538;DHT22;42435;53.292;6.000;2022-10-16T14:27:33;18.60;60.10
56538;DHT22;42435;53.292;6.000;2022-10-16T14:32:40;18.60;59.50
56538;DHT22;42435;53.292;6.000;2022-10-16T14:37:53;18.60;59.60
56538;DHT22;42435;53.292;6.000;2022-10-16T14:40:22;18.60;59.20
56538;DHT22;42435;53.292;6.000;2022-10-16T14:42:48;18.60;59.10
56538;DHT22;42435;53.292;6.000;2022-10-16T14:45:19;18.60;59.00
56538;DHT22;42435;53.292;6.000;2022-10-16T14:47:52;18.50;59.30
56538;DHT22;42435;53.292;6.000;2022-10-16T14:50:18;18.60;59.60
56538;DHT22;42435;53.292;6.000;2022-10-16T14:52:44;18.50;59.70
56538;DHT22;42435;53.292;6.000;2022-10-16T14:55:12;18.50;59.80
56538;DHT22;42435;53.292;6.000;2022-10-16T14:57:39;18.40;60.00
56538;DHT22;42435;53.292;6.000;2022-10-16T15:00:18;18.30;60.00
56538;DHT22;42435;53.292;6.000;2022-10-16T15:02:48;18.20;60.00
56538;DHT22;42435;53.292;6.000;2022-10-16T15:05:17;18.10;60.20
56538;DHT22;42435;53.292;6.000;2022-10-16T15:07:44;18.00;60.40
56538;DHT22;42435;53.292;6.000;2022-10-16T15:10:11;17.90;60.70
56538;DHT22;42435;53.292;6.000;2022-10-16T15:12:37;17.80;61.00
56538;DHT22;42435;53.292;6.000;2022-10-16T15:17:53;17.60;61.60
56538;DHT22;42435;53.292;6.000;2022-10-16T15:20:21;17.50;61.70
56538;DHT22;42435;53.292;6.000;2022-10-16T15:22:47;17.40;62.10
56538;DHT22;42435;53.292;6.000;2022-10-16T15:25:34;17.40;62.60
56538;DHT22;42435;53.292;6.000;2022-10-16T15:28:05;17.30;63.10
56538;DHT22;42435;53.292;6.000;2022-10-16T15:30:31;17.30;63.10
56538;DHT22;42435;53.292;6.000;2022-10-16T15:32:57;17.30;63.30
56538;DHT22;42435;53.292;6.000;2022-10-16T15:35:22;17.20;63.50
56538;DHT22;42435;53.292;6.000;2022-10-16T15:37:48;17.20;63.90
56538;DHT22;42435;53.292;6.000;2022-10-16T15:40:14;17.00;64.10
56538;DHT22;42435;53.292;6.000;2022-10-16T15:42:40;17.00;64.30
56538;DHT22;42435;53.292;6.000;2022-10-16T15:45:07;16.90;64.60
56538;DHT22;42435;53.292;6.000;2022-10-16T15:47:33;16.90;64.70
56538;DHT22;42435;53.292;6.000;2022-10-16T15:49:59;16.90;64.90
56538;DHT22;42435;53.292;6.000;2022-10-16T15:52:27;16.80;65.00
56538;DHT22;42435;53.292;6.000;2022-10-16T15:54:55;16.80;65.20
56538;DHT22;42435;53.292;6.000;2022-10-16T15:57:21;16.80;65.50
56538;DHT22;42435;53.292;6.000;2022-10-16T15:59:47;16.80;65.60
56538;DHT22;42435;53.292;6.000;2022-10-16T16:02:12;16.70;65.70
56538;DHT22;42435;53.292;6.000;2022-10-16T16:04:38;16.70;65.90
56538;DHT22;42435;53.292;6.000;2022-10-16T16:07:04;16.60;66.10
56538;DHT22;42435;53.292;6.000;2022-10-16T16:09:32;16.60;66.30
56538;DHT22;42435;53.292;6.000;2022-10-16T16:11:58;16.50;66.40
56538;DHT22;42435;53.292;6.000;2022-10-16T16:14:26;16.50;66.70
56538;DHT22;42435;53.292;6.000;2022-10-16T16:16:54;16.40;66.80
56538;DHT22;42435;53.292;6.000;2022-10-16T16:19:19;16.40;67.10
56538;DHT22;42435;53.292;6.000;2022-10-16T16:21:47;16.30;67.30
56538;DHT22;42435;53.292;6.000;2022-10-16T16:24:13;16.20;67.50
56538;DHT22;42435;53.292;6.000;2022-10-16T16:26:42;16.20;67.70
56538;DHT22;42435;53.292;6.000;2022-10-16T16:29:14;16.10;67.90
56538;DHT22;42435;53.292;6.000;2022-10-16T16:31:41;16.10;68.30
56538;DHT22;42435;53.292;6.000;2022-10-16T16:34:07;16.00;68.50
56538;DHT22;42435;53.292;6.000;2022-10-16T16:36:33;16.00;68.70
56538;DHT22;42435;53.292;6.000;2022-10-16T16:38:59;15.90;68.90
56538;DHT22;42435;53.292;6.000;2022-10-16T16:41:27;15.90;69.00
56538;DHT22;42435;53.292;6.000;2022-10-16T16:43:54;15.80;69.20
56538;DHT22;42435;53.292;6.000;2022-10-16T16:46:21;15.80;69.40
56538;DHT22;42435;53.292;6.000;2022-10-16T16:48:47;15.70;69.70
56538;DHT22;42435;53.292;6.000;2022-10-16T16:51:17;15.60;69.90
56538;DHT22;42435;53.292;6.000;2022-10-16T16:53:50;15.50;70.00
56538;DHT22;42435;53.292;6.000;2022-10-16T16:56:17;15.40;70.10
56538;DHT22;42435;53.292;6.000;2022-10-16T16:58:52;15.40;70.40
56538;DHT22;42435;53.292;6.000;2022-10-16T17:01:18;15.30;70.70
56538;DHT22;42435;53.292;6.000;2022-10-16T17:03:48;15.20;70.70
56538;DHT22;42435;53.292;6.000;2022-10-16T17:06:19;15.10;70.90
56538;DHT22;42435;53.292;6.000;2022-10-16T17:08:48;15.00;71.30
56538;DHT22;42435;53.292;6.000;2022-10-16T17:11:17;15.00;71.50
56538;DHT22;42435;53.292;6.000;2022-10-16T17:13:43;14.90;71.60
56538;DHT22;42435;53.292;6.000;2022-10-16T17:16:09;14.90;71.80
56538;DHT22;42435;53.292;6.000;2022-10-16T17:18:34;14.80;72.10
56538;DHT22;42435;53.292;6.000;2022-10-16T17:21:05;14.70;72.20
56538;DHT22;42435;53.292;6.000;2022-10-16T17:23:31;14.70;72.40
56538;DHT22;42435;53.292;6.000;2022-10-16T17:26:03;14.70;72.50
56538;DHT22;42435;53.292;6.000;2022-10-16T17:28:28;14.60;72.80
56538;DHT22;42435;53.292;6.000;2022-10-16T17:31:06;14.60;72.90
56538;DHT22;42435;53.292;6.000;2022-10-16T17:33:32;14.50;73.20
56538;DHT22;42435;53.292;6.000;2022-10-16T17:35:59;14.40;73.10
56538;DHT22;42435;53.292;6.000;2022-10-16T17:38:24;14.40;73.40